createdAt,value
2022-09-30T00:01:26.289Z,92893.03
2022-09-30T00:03:57.500Z,92901.19
2022-09-30T00:06:26.216Z,92872.00
2022-09-30T00:08:53.795Z,92896.19
2022-09-30T00:11:23.035Z,92898.00
2022-09-30T00:13:50.971Z,92886.25
2022-09-30T00:16:21.120Z,92876.28
2022-09-30T00:18:47.767Z,92869.91
2022-09-30T00:21:16.026Z,92890.06
2022-09-30T00:23:44.075Z,92893.47
2022-09-30T00:26:16.885Z,92903.84
2022-09-30T00:28:43.969Z,92885.06
2022-09-30T00:31:16.782Z,92902.66
2022-09-30T00:33:44.340Z,92911.03
2022-09-30T00:36:10.987Z,92905.47
2022-09-30T00:38:37.398Z,92889.06
2022-09-30T00:41:04.273Z,92887.88
2022-09-30T00:43:46.593Z,92890.31
2022-09-30T00:46:41.016Z,92902.47
2022-09-30T00:49:20.708Z,92895.69
2022-09-30T00:51:50.935Z,92880.31
2022-09-30T00:54:31.689Z,92887.28
2022-09-30T00:57:03.917Z,92870.72
2022-09-30T00:59:41.604Z,92877.91
2022-09-30T01:02:10.247Z,92895.47
2022-09-30T01:04:37.987Z,92899.03
2022-09-30T01:07:09.588Z,92890.28
2022-09-30T01:09:38.304Z,92917.03
2022-09-30T01:12:12.453Z,92922.22
2022-09-30T01:14:40.580Z,92906.84
2022-09-30T01:17:28.736Z,92922.22
2022-09-30T01:20:43.457Z,92926.59
2022-09-30T01:23:38.595Z,92901.25
2022-09-30T01:26:17.170Z,92925.63
2022-09-30T01:28:55.812Z,92926.63
2022-09-30T01:31:34.322Z,92932.03
2022-09-30T01:34:33.505Z,92928.22
2022-09-30T01:37:09.124Z,92933.63
2022-09-30T01:39:46.868Z,92909.47
2022-09-30T01:43:05.882Z,92936.22
2022-09-30T01:45:38.493Z,92903.47
2022-09-30T01:48:46.257Z,92949.44
2022-09-30T01:51:35.177Z,92943.81
2022-09-30T01:54:14.634Z,92927.63
2022-09-30T01:56:46.414Z,92940.22
2022-09-30T01:59:22.044Z,92927.06
2022-09-30T02:01:57.681Z,92937.41
2022-09-30T02:04:30.147Z,92917.88
2022-09-30T02:07:01.376Z,92918.25
2022-09-30T02:09:35.233Z,92913.47
2022-09-30T02:12:07.163Z,92955.84
2022-09-30T02:14:42.058Z,92944.25
2022-09-30T02:17:08.386Z,92953.06
2022-09-30T02:19:45.449Z,92928.66
2022-09-30T02:22:30.824Z,92947.84
2022-09-30T02:25:00.770Z,92960.66
2022-09-30T02:27:42.182Z,92922.25
2022-09-30T02:30:11.004Z,92937.66
2022-09-30T02:32:55.814Z,92971.00
2022-09-30T02:35:29.003Z,92962.44
2022-09-30T02:38:37.654Z,92965.84
2022-09-30T02:41:32.293Z,92963.03
2022-09-30T02:44:02.358Z,92957.84
2022-09-30T02:46:53.408Z,92969.03
2022-09-30T02:49:28.340Z,92959.44
2022-09-30T02:52:05.999Z,92961.03
2022-09-30T02:54:39.830Z,92938.66
2022-09-30T02:57:33.944Z,92974.63
2022-09-30T03:00:03.219Z,92934.06
2022-09-30T03:02:30.391Z,92939.03
2022-09-30T03:04:56.775Z,92957.22
2022-09-30T03:07:23.184Z,92952.66
2022-09-30T03:09:49.624Z,92972.59
2022-09-30T03:12:35.496Z,92955.84
2022-09-30T03:15:19.126Z,92964.00
2022-09-30T03:18:17.994Z,92983.03
2022-09-30T03:20:50.568Z,92988.22
2022-09-30T03:23:47.049Z,92978.63
2022-09-30T03:26:29.823Z,92962.63
2022-09-30T03:29:17.437Z,92984.19
2022-09-30T03:32:02.214Z,92993.44
2022-09-30T03:35:09.214Z,93001.03
2022-09-30T03:37:57.452Z,92994.63
2022-09-30T03:40:31.543Z,92997.41
2022-09-30T03:43:06.036Z,93001.03
2022-09-30T03:45:47.510Z,92988.63
2022-09-30T03:48:15.475Z,92991.81
2022-09-30T03:50:42.892Z,92990.63
2022-09-30T03:53:12.464Z,92991.41
2022-09-30T03:55:52.162Z,92999.00
2022-09-30T03:58:22.132Z,92983.63
2022-09-30T04:00:52.768Z,93008.97
2022-09-30T04:03:21.098Z,92978.97
2022-09-30T04:05:49.036Z,92986.41
2022-09-30T04:08:16.090Z,93009.00
2022-09-30T04:10:44.001Z,93004.22
2022-09-30T04:13:11.800Z,93007.81
2022-09-30T04:15:38.852Z,93005.00
2022-09-30T04:18:05.570Z,93001.41
2022-09-30T04:20:32.744Z,92977.41
2022-09-30T04:23:00.576Z,93002.00
2022-09-30T04:25:28.367Z,92995.81
2022-09-30T04:27:55.934Z,93011.00
2022-09-30T04:30:25.604Z,93021.81
2022-09-30T04:32:52.976Z,93000.59
2022-09-30T04:35:21.618Z,93005.59
2022-09-30T04:37:49.112Z,92993.00
2022-09-30T04:40:16.974Z,93019.00
2022-09-30T04:42:43.930Z,93018.19
2022-09-30T04:45:12.187Z,93024.19
2022-09-30T04:47:44.631Z,93008.59
2022-09-30T04:50:12.143Z,93006.41
2022-09-30T04:52:43.035Z,93020.19
2022-09-30T04:55:10.184Z,92992.22
2022-09-30T04:57:36.987Z,92996.22
2022-09-30T05:00:05.412Z,92998.19
2022-09-30T05:02:32.133Z,93019.41
2022-09-30T05:04:58.533Z,92998.59
2022-09-30T05:07:24.946Z,93021.41
2022-09-30T05:09:53.202Z,93006.41
2022-09-30T05:12:19.582Z,93019.03
2022-09-30T05:14:45.974Z,93014.63
2022-09-30T05:17:12.392Z,93021.81
2022-09-30T05:19:38.797Z,93037.41
2022-09-30T05:22:06.300Z,93019.00
2022-09-30T05:24:32.745Z,93045.38
2022-09-30T05:26:59.250Z,93046.97
2022-09-30T05:29:25.643Z,93039.97
2022-09-30T05:31:52.165Z,93043.78
2022-09-30T05:34:20.948Z,93044.97
2022-09-30T05:36:47.399Z,93078.56
2022-09-30T05:39:14.076Z,93074.97
2022-09-30T05:41:41.556Z,93083.38
2022-09-30T05:44:09.189Z,93088.97
2022-09-30T05:46:35.763Z,93083.75
2022-09-30T05:49:02.156Z,93086.16
2022-09-30T05:51:28.564Z,93084.53
2022-09-30T05:53:54.956Z,93093.94
2022-09-30T05:56:21.465Z,93079.34
2022-09-30T05:58:50.793Z,93084.97
2022-09-30T06:01:19.507Z,93066.16
2022-09-30T06:03:46.768Z,93095.38
2022-09-30T06:06:15.502Z,93090.56
2022-09-30T06:08:44.467Z,93077.78
2022-09-30T06:11:13.807Z,93120.59
2022-09-30T06:13:41.959Z,93119.78
2022-09-30T06:16:11.809Z,93094.81
2022-09-30T06:18:41.160Z,93113.00
2022-09-30T06:21:11.271Z,93107.00
2022-09-30T06:23:37.987Z,93136.22
2022-09-30T06:26:06.292Z,93136.22
2022-09-30T06:28:35.699Z,93125.22
2022-09-30T06:31:03.994Z,93123.41
2022-09-30T06:33:31.897Z,93122.63
2022-09-30T06:35:58.731Z,93130.22
2022-09-30T06:38:27.315Z,93145.63
2022-09-30T06:40:53.696Z,93152.63
2022-09-30T06:43:20.833Z,93132.00
2022-09-30T06:45:51.428Z,93153.38
2022-09-30T06:48:28.954Z,93149.81
2022-09-30T06:51:02.085Z,93157.41
2022-09-30T06:53:29.308Z,93154.97
2022-09-30T06:55:57.139Z,93189.38
2022-09-30T06:58:26.924Z,93185.38
2022-09-30T07:01:02.177Z,93179.44
2022-09-30T07:03:32.748Z,93164.63
2022-09-30T07:06:01.116Z,93152.25
2022-09-30T07:08:31.635Z,93133.81
2022-09-30T07:11:04.424Z,93148.22
2022-09-30T07:13:32.984Z,93141.44
2022-09-30T07:15:59.432Z,93153.03
2022-09-30T07:18:28.025Z,93151.84
2022-09-30T07:20:55.822Z,93153.00
2022-09-30T07:23:26.665Z,93132.59
2022-09-30T07:26:00.258Z,93156.84
2022-09-30T07:28:32.001Z,93146.63
2022-09-30T07:31:30.790Z,93169.06
2022-09-30T07:33:52.648Z,93148.03
2022-09-30T07:36:32.603Z,93167.44
2022-09-30T07:39:00.272Z,93163.84
2022-09-30T07:41:28.964Z,93172.44
2022-09-30T07:43:58.648Z,93174.25
2022-09-30T07:46:31.161Z,93157.81
2022-09-30T07:49:02.175Z,93173.84
2022-09-30T07:51:32.102Z,93188.84
2022-09-30T07:54:02.125Z,93180.22
2022-09-30T07:56:37.073Z,93183.03
2022-09-30T07:59:15.977Z,93199.44
2022-09-30T08:01:42.605Z,93179.03
2022-09-30T08:04:11.195Z,93208.47
2022-09-30T08:06:40.441Z,93185.56
2022-09-30T08:09:08.446Z,93206.25
2022-09-30T08:11:38.102Z,93168.44
2022-09-30T08:14:05.576Z,93175.44
2022-09-30T08:16:32.328Z,93175.03
2022-09-30T08:19:01.249Z,93183.03
2022-09-30T08:21:28.946Z,93158.63
2022-09-30T08:23:55.476Z,93182.22
2022-09-30T08:26:22.003Z,93181.78
2022-09-30T08:28:48.583Z,93189.41
2022-09-30T08:31:20.746Z,93211.00
2022-09-30T08:33:47.408Z,93205.44
2022-09-30T08:36:18.372Z,93221.44
2022-09-30T08:38:45.047Z,93209.06
2022-09-30T08:41:32.846Z,93225.00
2022-09-30T08:44:32.177Z,93207.75
2022-09-30T08:47:35.126Z,93192.09
2022-09-30T08:50:22.828Z,93214.91
2022-09-30T08:52:52.300Z,93199.03
2022-09-30T08:55:25.747Z,93194.78
2022-09-30T08:57:55.186Z,93220.78
2022-09-30T09:00:22.603Z,93219.56
2022-09-30T09:03:00.584Z,93227.91
2022-09-30T09:05:49.952Z,93227.53
2022-09-30T09:08:18.752Z,93240.72
2022-09-30T09:10:50.257Z,93168.38
2022-09-30T09:13:35.370Z,93241.16
2022-09-30T09:16:26.511Z,93214.69
2022-09-30T09:18:59.313Z,93243.88
2022-09-30T09:21:44.448Z,93254.31
2022-09-30T09:24:18.594Z,93253.97
2022-09-30T09:26:45.077Z,93244.34
2022-09-30T09:29:14.576Z,93272.81
2022-09-30T09:31:41.067Z,93271.94
2022-09-30T09:34:11.021Z,93251.88
2022-09-30T09:36:58.628Z,93252.19
2022-09-30T09:39:40.681Z,93277.41
2022-09-30T09:42:45.330Z,93280.03
2022-09-30T09:45:37.743Z,93262.78
2022-09-30T09:48:09.342Z,93278.88
2022-09-30T09:50:44.602Z,93275.94
2022-09-30T09:53:28.268Z,93272.16
2022-09-30T09:55:59.987Z,93270.88
2022-09-30T09:58:26.714Z,93294.56
2022-09-30T10:00:53.105Z,93279.63
2022-09-30T10:03:26.282Z,93304.00
2022-09-30T10:06:10.723Z,93312.56
2022-09-30T10:08:39.675Z,93314.44
2022-09-30T10:11:21.282Z,93303.28
2022-09-30T10:13:48.471Z,93317.38
2022-09-30T10:16:35.915Z,93302.97
2022-09-30T10:19:19.991Z,93306.94
2022-09-30T10:21:46.420Z,93271.78
2022-09-30T10:24:29.264Z,93306.78
2022-09-30T10:26:55.983Z,93314.44
2022-09-30T10:29:27.075Z,93287.63
2022-09-30T10:31:58.909Z,93300.03
2022-09-30T10:34:36.843Z,93294.03
2022-09-30T10:37:11.047Z,93306.56
2022-09-30T10:39:40.496Z,93300.63
2022-09-30T10:42:12.830Z,93296.06
2022-09-30T10:44:46.629Z,93306.41
2022-09-30T10:47:22.297Z,93300.19
2022-09-30T10:49:51.577Z,93300.50
2022-09-30T10:52:25.119Z,93287.34
2022-09-30T10:54:53.975Z,93322.25
2022-09-30T10:57:24.266Z,93320.19
2022-09-30T10:59:55.076Z,93289.88
2022-09-30T11:02:33.551Z,93326.09
2022-09-30T11:05:20.326Z,93334.59
2022-09-30T11:08:10.403Z,93335.97
2022-09-30T11:11:01.503Z,93331.81
2022-09-30T11:14:04.214Z,93339.38
2022-09-30T11:16:47.442Z,93335.25
2022-09-30T11:19:37.050Z,93335.97
2022-09-30T11:22:28.259Z,93339.25
2022-09-30T11:24:57.184Z,93315.41
2022-09-30T11:27:52.721Z,93341.84
2022-09-30T11:30:39.966Z,93306.16
2022-09-30T11:33:25.482Z,93339.34
2022-09-30T11:36:11.301Z,93344.28
2022-09-30T11:39:19.745Z,93336.34
2022-09-30T11:42:01.154Z,93316.25
2022-09-30T11:44:27.475Z,93341.56
2022-09-30T11:47:18.886Z,93346.81
2022-09-30T11:50:07.697Z,93324.09
2022-09-30T11:52:46.431Z,93338.03
2022-09-30T11:55:41.504Z,93319.22
2022-09-30T11:58:39.202Z,93321.59
2022-09-30T12:01:16.246Z,93342.84
2022-09-30T12:03:48.621Z,93313.00
2022-09-30T12:06:30.343Z,93317.44
2022-09-30T12:09:19.764Z,93326.06
2022-09-30T12:11:52.280Z,93338.59
2022-09-30T12:14:28.574Z,93316.28
2022-09-30T12:16:57.630Z,93330.53
2022-09-30T12:19:34.261Z,93300.88
2022-09-30T12:22:05.017Z,93323.81
2022-09-30T12:24:39.927Z,93338.84
2022-09-30T12:27:30.283Z,93327.97
2022-09-30T12:30:17.790Z,93339.72
2022-09-30T12:32:48.719Z,93345.59
2022-09-30T12:35:46.456Z,93302.34
2022-09-30T12:38:41.266Z,93306.94
2022-09-30T12:41:26.688Z,93345.94
2022-09-30T12:44:28.461Z,93327.19
2022-09-30T12:47:14.183Z,93351.19
2022-09-30T12:49:41.952Z,93310.34
2022-09-30T12:52:18.124Z,93347.63
2022-09-30T12:55:25.452Z,93344.44
2022-09-30T12:57:53.199Z,93365.94
2022-09-30T13:00:25.543Z,93362.97
2022-09-30T13:02:59.350Z,93336.16
2022-09-30T13:05:31.895Z,93368.59
2022-09-30T13:08:07.164Z,93357.75
2022-09-30T13:10:45.054Z,93346.25
2022-09-30T13:13:13.923Z,93346.19
2022-09-30T13:15:46.203Z,93321.19
2022-09-30T13:18:32.812Z,93338.84
2022-09-30T13:21:05.339Z,93338.31
2022-09-30T13:23:51.442Z,93344.22
2022-09-30T13:26:33.472Z,93344.22
2022-09-30T13:29:00.182Z,93341.16
2022-09-30T13:31:28.561Z,93327.94
2022-09-30T13:34:02.110Z,93354.28
2022-09-30T13:36:31.247Z,93347.72
2022-09-30T13:39:17.891Z,93343.69
2022-09-30T13:41:49.159Z,93313.69
2022-09-30T13:44:21.399Z,93300.22
2022-09-30T13:46:53.314Z,93312.66
2022-09-30T13:49:25.572Z,93334.44
2022-09-30T13:51:54.918Z,93311.41
2022-09-30T13:54:29.852Z,93334.34
2022-09-30T13:56:56.764Z,93326.22
2022-09-30T13:59:37.277Z,93337.41
2022-09-30T14:02:22.292Z,93333.06
2022-09-30T14:05:15.485Z,93328.16
2022-09-30T14:07:53.043Z,93326.66
2022-09-30T14:10:42.042Z,93343.56
2022-09-30T14:13:40.571Z,93326.03
2022-09-30T14:16:36.671Z,93350.69
2022-09-30T14:19:24.076Z,93356.63
2022-09-30T14:21:57.471Z,93328.13
2022-09-30T14:24:26.735Z,93328.28
2022-09-30T14:27:41.376Z,93363.78
2022-09-30T14:30:20.128Z,93365.44
2022-09-30T14:32:54.851Z,93323.56
2022-09-30T14:35:25.556Z,93322.19
2022-09-30T14:37:59.121Z,93326.91
2022-09-30T14:40:32.235Z,93362.56
2022-09-30T14:43:14.583Z,93337.44
2022-09-30T14:45:44.735Z,93346.28
2022-09-30T14:48:19.876Z,93356.78
2022-09-30T14:51:01.334Z,93364.06
2022-09-30T14:53:36.732Z,93364.78
2022-09-30T14:56:19.502Z,93371.34
2022-09-30T14:58:47.067Z,93349.03
2022-09-30T15:01:17.593Z,93383.44
2022-09-30T15:03:49.014Z,93376.03
2022-09-30T15:06:37.903Z,93351.38
2022-09-30T15:09:14.905Z,93382.81
2022-09-30T15:11:41.466Z,93365.09
2022-09-30T15:14:17.680Z,93374.56
2022-09-30T15:17:06.359Z,93380.81
2022-09-30T15:19:35.131Z,93380.69
2022-09-30T15:22:04.533Z,93323.47
2022-09-30T15:24:32.604Z,93373.25
2022-09-30T15:27:01.357Z,93362.22
2022-09-30T15:29:28.215Z,93359.09
2022-09-30T15:32:01.105Z,93370.56
2022-09-30T15:34:28.742Z,93382.16
2022-09-30T15:37:06.399Z,93396.84
2022-09-30T15:39:55.942Z,93412.97
2022-09-30T15:42:35.337Z,93411.44
2022-09-30T15:45:04.463Z,93420.16
2022-09-30T15:47:31.031Z,93425.00
2022-09-30T15:49:57.525Z,93407.38
2022-09-30T15:52:37.440Z,93415.69
2022-09-30T15:55:43.653Z,93428.50
2022-09-30T15:58:39.378Z,93432.16
2022-09-30T16:01:14.275Z,93434.53
2022-09-30T16:03:49.873Z,93430.66
2022-09-30T16:06:25.146Z,93398.94
2022-09-30T16:09:02.112Z,93438.53
2022-09-30T16:11:36.506Z,93431.03
2022-09-30T16:14:07.863Z,93445.81
2022-09-30T16:16:36.930Z,93442.00
2022-09-30T16:19:04.696Z,93427.00
2022-09-30T16:21:51.903Z,93420.63
2022-09-30T16:24:21.103Z,93456.06
2022-09-30T16:26:49.275Z,93442.81
2022-09-30T16:29:17.835Z,93455.50
2022-09-30T16:31:46.748Z,93449.13
2022-09-30T16:34:36.739Z,93460.00
2022-09-30T16:37:10.833Z,93444.44
2022-09-30T16:39:37.227Z,93439.28
2022-09-30T16:42:04.426Z,93414.03
2022-09-30T16:44:35.562Z,93459.97
2022-09-30T16:47:02.643Z,93464.59
2022-09-30T16:49:30.277Z,93473.06
2022-09-30T16:51:56.744Z,93455.06
2022-09-30T16:54:23.242Z,93450.47
2022-09-30T16:56:49.691Z,93436.25
2022-09-30T16:59:20.096Z,93478.91
2022-09-30T17:01:46.558Z,93461.50
2022-09-30T17:04:15.391Z,93461.88
2022-09-30T17:06:44.651Z,93443.44
2022-09-30T17:09:11.208Z,93482.38
2022-09-30T17:11:38.753Z,93463.13
2022-09-30T17:14:05.607Z,93472.16
2022-09-30T17:16:34.100Z,93400.00
2022-09-30T17:19:00.713Z,93465.56
2022-09-30T17:21:27.641Z,93486.44
2022-09-30T17:23:55.674Z,93475.28
2022-09-30T17:26:22.618Z,93479.69
2022-09-30T17:28:48.996Z,93466.81
2022-09-30T17:31:16.469Z,93473.50
2022-09-30T17:33:42.924Z,93448.72
2022-09-30T17:36:12.220Z,93491.88
2022-09-30T17:38:40.357Z,93510.66
2022-09-30T17:41:26.325Z,93515.56
2022-09-30T17:43:52.712Z,93482.84
2022-09-30T17:46:23.213Z,93507.06
2022-09-30T17:48:51.139Z,93487.03
2022-09-30T17:51:17.600Z,93478.00
2022-09-30T17:53:44.877Z,93532.38
2022-09-30T17:56:24.337Z,93516.72
2022-09-30T17:58:51.507Z,93509.13
2022-09-30T18:01:20.496Z,93503.53
2022-09-30T18:03:49.216Z,93518.41
2022-09-30T18:06:15.616Z,93530.91
2022-09-30T18:08:42.068Z,93534.75
2022-09-30T18:11:08.487Z,93532.97
2022-09-30T18:13:35.031Z,93498.88
2022-09-30T18:16:06.289Z,93508.09
2022-09-30T18:18:35.129Z,93540.41
2022-09-30T18:21:01.550Z,93525.94
2022-09-30T18:23:27.941Z,93496.22
2022-09-30T18:25:57.835Z,93525.50
2022-09-30T18:28:24.306Z,93531.72
2022-09-30T18:30:50.800Z,93529.72
2022-09-30T18:33:21.225Z,93539.31
2022-09-30T18:35:48.047Z,93497.25
2022-09-30T18:38:14.883Z,93524.16
2022-09-30T18:40:45.993Z,93542.63
2022-09-30T18:43:14.109Z,93522.97
2022-09-30T18:45:42.983Z,93544.25
2022-09-30T18:48:10.303Z,93534.63
2022-09-30T18:50:38.648Z,93541.59
2022-09-30T18:53:09.602Z,93537.19
2022-09-30T18:55:39.484Z,93508.09
2022-09-30T18:58:06.045Z,93537.38
2022-09-30T19:00:32.864Z,93528.97
2022-09-30T19:02:59.336Z,93527.41
2022-09-30T19:05:27.184Z,93534.63
2022-09-30T19:07:54.444Z,93552.69
2022-09-30T19:10:24.392Z,93541.81
2022-09-30T19:12:51.994Z,93508.91
2022-09-30T19:15:19.142Z,93524.13
2022-09-30T19:17:46.066Z,93516.91
2022-09-30T19:20:15.305Z,93521.13
2022-09-30T19:22:42.143Z,93547.81
2022-09-30T19:25:11.602Z,93526.63
2022-09-30T19:27:40.779Z,93536.63
2022-09-30T19:30:09.752Z,93547.91
2022-09-30T19:32:36.597Z,93527.19
2022-09-30T19:35:06.586Z,93540.66
2022-09-30T19:37:33.609Z,93535.44
2022-09-30T19:40:07.719Z,93515.00
2022-09-30T19:42:39.311Z,93508.94
2022-09-30T19:45:07.038Z,93518.97
2022-09-30T19:47:34.633Z,93541.06
2022-09-30T19:50:01.156Z,93511.75
2022-09-30T19:52:27.959Z,93516.97
2022-09-30T19:54:58.403Z,93526.19
2022-09-30T19:57:29.386Z,93533.03
2022-09-30T19:59:55.784Z,93506.91
2022-09-30T20:02:23.087Z,93514.56
2022-09-30T20:04:51.583Z,93507.13
2022-09-30T20:07:20.075Z,93529.41
2022-09-30T20:09:49.414Z,93509.31
2022-09-30T20:12:15.810Z,93514.13
2022-09-30T20:15:00.852Z,93506.13
2022-09-30T20:17:28.112Z,93527.97
2022-09-30T20:20:13.048Z,93524.94
2022-09-30T20:22:39.416Z,93533.81
2022-09-30T20:25:06.077Z,93531.00
2022-09-30T20:27:33.004Z,93524.75
2022-09-30T20:29:59.789Z,93551.66
2022-09-30T20:32:30.573Z,93558.28
2022-09-30T20:34:58.308Z,93535.03
2022-09-30T20:37:25.264Z,93571.13
2022-09-30T20:39:51.639Z,93552.06
2022-09-30T20:42:18.031Z,93559.28
2022-09-30T20:44:45.217Z,93573.94
2022-09-30T20:47:11.967Z,93541.84
2022-09-30T20:49:38.349Z,93547.41
2022-09-30T20:52:05.998Z,93544.59
2022-09-30T20:54:35.401Z,93544.25
2022-09-30T20:57:07.191Z,93553.47
2022-09-30T20:59:34.302Z,93571.16
2022-09-30T21:02:00.823Z,93542.06
2022-09-30T21:04:27.263Z,93547.06
2022-09-30T21:06:53.643Z,93552.28
2022-09-30T21:09:20.164Z,93559.50
2022-09-30T21:11:46.559Z,93552.28
2022-09-30T21:14:17.449Z,93519.41
2022-09-30T21:16:43.958Z,93533.03
2022-09-30T21:19:10.401Z,93530.63
2022-09-30T21:21:36.790Z,93520.16
2022-09-30T21:24:03.199Z,93519.38
2022-09-30T21:26:29.969Z,93504.13
2022-09-30T21:28:56.369Z,93517.38
2022-09-30T21:31:26.728Z,93544.69
2022-09-30T21:33:58.405Z,93540.25
2022-09-30T21:36:26.891Z,93521.59
2022-09-30T21:38:54.703Z,93535.41
2022-09-30T21:41:21.135Z,93524.59
2022-09-30T21:43:47.772Z,93526.19
2022-09-30T21:46:15.628Z,93537.44
2022-09-30T21:48:42.780Z,93533.81
2022-09-30T21:51:10.363Z,93546.09
2022-09-30T21:53:38.841Z,93553.09
2022-09-30T21:56:06.511Z,93555.94
2022-09-30T21:58:33.501Z,93566.34
2022-09-30T22:01:02.773Z,93558.31
2022-09-30T22:03:37.469Z,93585.81
2022-09-30T22:06:07.136Z,93581.19
2022-09-30T22:08:36.243Z,93569.69
2022-09-30T22:11:06.747Z,93590.84
2022-09-30T22:13:33.196Z,93554.69
2022-09-30T22:16:05.104Z,93594.03
2022-09-30T22:18:32.923Z,93606.09
2022-09-30T22:21:12.495Z,93610.53
2022-09-30T22:23:39.667Z,93618.16
2022-09-30T22:26:11.938Z,93616.56
2022-09-30T22:28:39.583Z,93607.72
2022-09-30T22:31:13.065Z,93625.59
2022-09-30T22:33:58.111Z,93614.91
2022-09-30T22:36:42.851Z,93602.66
2022-09-30T22:39:10.596Z,93608.50
2022-09-30T22:41:38.200Z,93608.91
2022-09-30T22:44:05.165Z,93629.34
2022-09-30T22:46:36.474Z,93638.19
2022-09-30T22:49:03.779Z,93640.19
2022-09-30T22:51:31.240Z,93644.19
2022-09-30T22:54:00.998Z,93628.53
2022-09-30T22:56:27.814Z,93643.03
2022-09-30T22:58:54.211Z,93623.78
2022-09-30T23:01:20.721Z,93626.97
2022-09-30T23:03:48.387Z,93642.22
2022-09-30T23:06:14.828Z,93627.75
2022-09-30T23:08:45.387Z,93626.91
2022-09-30T23:11:15.640Z,93646.59
2022-09-30T23:13:42.551Z,93623.28
2022-09-30T23:16:09.844Z,93644.59
2022-09-30T23:18:36.397Z,93622.50
2022-09-30T23:21:05.216Z,93657.03
2022-09-30T23:23:33.246Z,93652.22
2022-09-30T23:26:01.550Z,93610.06
2022-09-30T23:28:28.667Z,93554.19
2022-09-30T23:30:55.900Z,93632.53
2022-09-30T23:33:22.295Z,93640.22
2022-09-30T23:35:49.306Z,93658.28
2022-09-30T23:38:17.836Z,93652.41
2022-09-30T23:40:48.342Z,93654.78
2022-09-30T23:43:15.696Z,93646.56
2022-09-30T23:45:42.553Z,93664.09
2022-09-30T23:48:09.276Z,93672.69
2022-09-30T23:50:35.674Z,93648.53
2022-09-30T23:53:02.126Z,93650.88
2022-09-30T23:55:31.645Z,93670.50
2022-09-30T23:57:58.102Z,93663.84
